sensor_id;sensor_type;location;lat;lon;timestamp;P1;durP1;ratioP1;P2;durP2;ratioP2
58340;SDS011;44149;43.060;0.104;2022-07-05T00:00:02;3.88;;;1.90;;
58340;SDS011;44149;43.060;0.104;2022-07-05T00:02:28;2.80;;;1.95;;
58340;SDS011;44149;43.060;0.104;2022-07-05T00:04:55;4.47;;;1.95;;
58340;SDS011;44149;43.060;0.104;2022-07-05T00:07:21;3.33;;;1.85;;
58340;SDS011;44149;43.060;0.104;2022-07-05T00:09:48;3.42;;;1.63;;
58340;SDS011;44149;43.060;0.104;2022-07-05T00:12:15;3.90;;;1.75;;
58340;SDS011;44149;43.060;0.104;2022-07-05T00:14:42;3.30;;;1.70;;
58340;SDS011;44149;43.060;0.104;2022-07-05T00:17:08;3.83;;;2.00;;
58340;SDS011;44149;43.060;0.104;2022-07-05T00:19:35;2.67;;;2.10;;
58340;SDS011;44149;43.060;0.104;2022-07-05T00:22:01;2.08;;;1.45;;
58340;SDS011;44149;43.060;0.104;2022-07-05T00:24:27;4.20;;;1.70;;
58340;SDS011;44149;43.060;0.104;2022-07-05T00:26:54;3.58;;;2.10;;
58340;SDS011;44149;43.060;0.104;2022-07-05T00:29:20;2.55;;;1.60;;
58340;SDS011;44149;43.060;0.104;2022-07-05T00:31:46;3.28;;;1.92;;
58340;SDS011;44149;43.060;0.104;2022-07-05T00:34:12;4.57;;;2.10;;
58340;SDS011;44149;43.060;0.104;2022-07-05T00:36:38;2.65;;;1.60;;
58340;SDS011;44149;43.060;0.104;2022-07-05T00:39:05;2.80;;;1.75;;
58340;SDS011;44149;43.060;0.104;2022-07-05T00:41:31;2.67;;;1.55;;
58340;SDS011;44149;43.060;0.104;2022-07-05T00:44:00;2.85;;;1.48;;
58340;SDS011;44149;43.060;0.104;2022-07-05T00:46:27;2.20;;;1.27;;
58340;SDS011;44149;43.060;0.104;2022-07-05T00:48:53;4.60;;;2.15;;
58340;SDS011;44149;43.060;0.104;2022-07-05T00:51:20;2.38;;;1.45;;
58340;SDS011;44149;43.060;0.104;2022-07-05T00:53:46;1.92;;;1.45;;
58340;SDS011;44149;43.060;0.104;2022-07-05T00:56:13;5.28;;;1.55;;
58340;SDS011;44149;43.060;0.104;2022-07-05T00:58:39;1.92;;;1.33;;
58340;SDS011;44149;43.060;0.104;2022-07-05T01:01:06;5.25;;;1.00;;
58340;SDS011;44149;43.060;0.104;2022-07-05T01:03:33;1.67;;;1.00;;
58340;SDS011;44149;43.060;0.104;2022-07-05T01:06:03;0.73;;;0.73;;
58340;SDS011;44149;43.060;0.104;2022-07-05T01:08:30;1.33;;;0.90;;
58340;SDS011;44149;43.060;0.104;2022-07-05T01:10:58;0.95;;;0.73;;
58340;SDS011;44149;43.060;0.104;2022-07-05T01:13:25;2.03;;;1.40;;
58340;SDS011;44149;43.060;0.104;2022-07-05T01:15:51;1.85;;;1.38;;
58340;SDS011;44149;43.060;0.104;2022-07-05T01:18:19;2.42;;;1.50;;
58340;SDS011;44149;43.060;0.104;2022-07-05T01:20:46;1.92;;;1.52;;
58340;SDS011;44149;43.060;0.104;2022-07-05T01:23:13;2.75;;;1.52;;
58340;SDS011;44149;43.060;0.104;2022-07-05T01:25:39;1.65;;;1.23;;
58340;SDS011;44149;43.060;0.104;2022-07-05T01:28:06;3.40;;;1.75;;
58340;SDS011;44149;43.060;0.104;2022-07-05T01:30:33;2.88;;;1.77;;
58340;SDS011;44149;43.060;0.104;2022-07-05T01:33:00;3.63;;;1.95;;
58340;SDS011;44149;43.060;0.104;2022-07-05T01:35:26;3.10;;;1.80;;
58340;SDS011;44149;43.060;0.104;2022-07-05T01:37:53;2.60;;;1.70;;
58340;SDS011;44149;43.060;0.104;2022-07-05T01:40:19;3.60;;;1.42;;
58340;SDS011;44149;43.060;0.104;2022-07-05T01:42:46;7.70;;;1.38;;
58340;SDS011;44149;43.060;0.104;2022-07-05T01:45:12;1.80;;;1.23;;
58340;SDS011;44149;43.060;0.104;2022-07-05T01:47:58;1.55;;;1.10;;
58340;SDS011;44149;43.060;0.104;2022-07-05T01:50:25;0.95;;;0.80;;
58340;SDS011;44149;43.060;0.104;2022-07-05T01:52:53;0.82;;;0.65;;
58340;SDS011;44149;43.060;0.104;2022-07-05T01:55:19;3.65;;;0.75;;
58340;SDS011;44149;43.060;0.104;2022-07-05T01:57:45;1.42;;;0.93;;
58340;SDS011;44149;43.060;0.104;2022-07-05T02:00:11;2.60;;;0.70;;
58340;SDS011;44149;43.060;0.104;2022-07-05T02:02:41;0.95;;;0.80;;
58340;SDS011;44149;43.060;0.104;2022-07-05T02:05:07;1.40;;;0.90;;
58340;SDS011;44149;43.060;0.104;2022-07-05T02:07:34;1.38;;;1.00;;
58340;SDS011;44149;43.060;0.104;2022-07-05T02:10:00;5.20;;;1.27;;
58340;SDS011;44149;43.060;0.104;2022-07-05T02:12:26;2.03;;;1.20;;
58340;SDS011;44149;43.060;0.104;2022-07-05T02:14:52;1.33;;;1.08;;
58340;SDS011;44149;43.060;0.104;2022-07-05T02:17:18;2.70;;;1.30;;
58340;SDS011;44149;43.060;0.104;2022-07-05T02:19:44;1.70;;;1.23;;
58340;SDS011;44149;43.060;0.104;2022-07-05T02:22:10;2.63;;;1.13;;
58340;SDS011;44149;43.060;0.104;2022-07-05T02:24:37;1.88;;;1.10;;
58340;SDS011;44149;43.060;0.104;2022-07-05T02:27:03;2.10;;;1.10;;
58340;SDS011;44149;43.060;0.104;2022-07-05T02:29:30;1.27;;;1.05;;
58340;SDS011;44149;43.060;0.104;2022-07-05T02:31:56;1.33;;;1.20;;
58340;SDS011;44149;43.060;0.104;2022-07-05T02:34:22;2.22;;;1.27;;
58340;SDS011;44149;43.060;0.104;2022-07-05T02:36:48;2.28;;;1.52;;
58340;SDS011;44149;43.060;0.104;2022-07-05T02:39:14;2.28;;;1.67;;
58340;SDS011;44149;43.060;0.104;2022-07-05T02:41:40;2.15;;;1.60;;
58340;SDS011;44149;43.060;0.104;2022-07-05T02:44:06;2.20;;;1.42;;
58340;SDS011;44149;43.060;0.104;2022-07-05T02:46:33;2.00;;;1.27;;
58340;SDS011;44149;43.060;0.104;2022-07-05T02:48:59;1.35;;;1.20;;
58340;SDS011;44149;43.060;0.104;2022-07-05T02:51:25;1.15;;;0.90;;
58340;SDS011;44149;43.060;0.104;2022-07-05T02:53:51;1.92;;;1.30;;
58340;SDS011;44149;43.060;0.104;2022-07-05T02:56:17;18.05;;;1.20;;
58340;SDS011;44149;43.060;0.104;2022-07-05T02:58:43;26.60;;;1.27;;
58340;SDS011;44149;43.060;0.104;2022-07-05T03:01:09;40.30;;;1.85;;
58340;SDS011;44149;43.060;0.104;2022-07-05T03:03:36;13.02;;;1.48;;
58340;SDS011;44149;43.060;0.104;2022-07-05T03:06:02;9.10;;;1.77;;
58340;SDS011;44149;43.060;0.104;2022-07-05T03:08:28;13.88;;;1.60;;
58340;SDS011;44149;43.060;0.104;2022-07-05T03:10:54;2.65;;;1.70;;
58340;SDS011;44149;43.060;0.104;2022-07-05T03:13:20;21.38;;;1.90;;
58340;SDS011;44149;43.060;0.104;2022-07-05T03:15:46;12.93;;;2.33;;
58340;SDS011;44149;43.060;0.104;2022-07-05T03:18:12;4.50;;;2.10;;
58340;SDS011;44149;43.060;0.104;2022-07-05T03:20:39;2.83;;;1.63;;
58340;SDS011;44149;43.060;0.104;2022-07-05T03:23:05;11.05;;;2.03;;
58340;SDS011;44149;43.060;0.104;2022-07-05T03:25:31;4.43;;;1.90;;
58340;SDS011;44149;43.060;0.104;2022-07-05T03:27:57;2.67;;;1.90;;
58340;SDS011;44149;43.060;0.104;2022-07-05T03:30:23;6.45;;;2.20;;
58340;SDS011;44149;43.060;0.104;2022-07-05T03:32:49;7.93;;;2.17;;
58340;SDS011;44149;43.060;0.104;2022-07-05T03:35:15;18.35;;;2.55;;
58340;SDS011;44149;43.060;0.104;2022-07-05T03:37:41;12.05;;;2.08;;
58340;SDS011;44149;43.060;0.104;2022-07-05T03:40:08;9.30;;;1.70;;
58340;SDS011;44149;43.060;0.104;2022-07-05T03:42:34;3.38;;;1.85;;
58340;SDS011;44149;43.060;0.104;2022-07-05T03:45:01;7.15;;;2.40;;
58340;SDS011;44149;43.060;0.104;2022-07-05T03:47:27;3.35;;;1.98;;
58340;SDS011;44149;43.060;0.104;2022-07-05T03:49:53;18.80;;;2.17;;
58340;SDS011;44149;43.060;0.104;2022-07-05T03:52:20;5.72;;;1.80;;
58340;SDS011;44149;43.060;0.104;2022-07-05T03:54:46;5.40;;;1.83;;
58340;SDS011;44149;43.060;0.104;2022-07-05T03:57:12;5.35;;;1.73;;
58340;SDS011;44149;43.060;0.104;2022-07-05T03:59:39;2.53;;;1.67;;
58340;SDS011;44149;43.060;0.104;2022-07-05T04:02:06;7.00;;;1.77;;
58340;SDS011;44149;43.060;0.104;2022-07-05T04:04:33;2.85;;;1.45;;
58340;SDS011;44149;43.060;0.104;2022-07-05T04:06:59;2.00;;;1.45;;
58340;SDS011;44149;43.060;0.104;2022-07-05T04:09:25;7.25;;;2.13;;
58340;SDS011;44149;43.060;0.104;2022-07-05T04:11:51;8.70;;;2.00;;
58340;SDS011;44149;43.060;0.104;2022-07-05T04:14:17;7.22;;;2.03;;
58340;SDS011;44149;43.060;0.104;2022-07-05T04:16:43;8.00;;;1.90;;
58340;SDS011;44149;43.060;0.104;2022-07-05T04:19:09;3.28;;;1.63;;
58340;SDS011;44149;43.060;0.104;2022-07-05T04:21:35;6.55;;;1.58;;
58340;SDS011;44149;43.060;0.104;2022-07-05T04:24:02;10.73;;;2.17;;
58340;SDS011;44149;43.060;0.104;2022-07-05T04:26:28;6.88;;;1.55;;
58340;SDS011;44149;43.060;0.104;2022-07-05T04:28:54;8.85;;;1.70;;
58340;SDS011;44149;43.060;0.104;2022-07-05T04:31:20;2.33;;;1.42;;
58340;SDS011;44149;43.060;0.104;2022-07-05T04:33:46;7.97;;;2.10;;
58340;SDS011;44149;43.060;0.104;2022-07-05T04:36:12;7.78;;;1.52;;
58340;SDS011;44149;43.060;0.104;2022-07-05T04:38:39;7.82;;;1.52;;
58340;SDS011;44149;43.060;0.104;2022-07-05T04:41:05;5.80;;;2.17;;
58340;SDS011;44149;43.060;0.104;2022-07-05T04:43:31;11.60;;;1.88;;
58340;SDS011;44149;43.060;0.104;2022-07-05T04:45:59;8.52;;;2.15;;
58340;SDS011;44149;43.060;0.104;2022-07-05T04:48:25;9.02;;;1.83;;
58340;SDS011;44149;43.060;0.104;2022-07-05T04:50:51;13.13;;;1.40;;
58340;SDS011;44149;43.060;0.104;2022-07-05T04:53:17;12.68;;;1.70;;
58340;SDS011;44149;43.060;0.104;2022-07-05T04:55:43;6.60;;;1.70;;
58340;SDS011;44149;43.060;0.104;2022-07-05T04:58:10;9.52;;;1.40;;
58340;SDS011;44149;43.060;0.104;2022-07-05T05:00:36;6.45;;;1.50;;
58340;SDS011;44149;43.060;0.104;2022-07-05T05:03:02;3.80;;;2.08;;
58340;SDS011;44149;43.060;0.104;2022-07-05T05:05:29;2.78;;;1.10;;
58340;SDS011;44149;43.060;0.104;2022-07-05T05:07:55;9.85;;;2.13;;
58340;SDS011;44149;43.060;0.104;2022-07-05T05:10:21;2.53;;;1.52;;
58340;SDS011;44149;43.060;0.104;2022-07-05T05:12:47;3.58;;;1.75;;
58340;SDS011;44149;43.060;0.104;2022-07-05T05:15:13;7.50;;;1.73;;
58340;SDS011;44149;43.060;0.104;2022-07-05T05:17:40;3.28;;;2.00;;
58340;SDS011;44149;43.060;0.104;2022-07-05T05:20:09;3.55;;;2.00;;
58340;SDS011;44149;43.060;0.104;2022-07-05T05:22:36;2.13;;;1.60;;
58340;SDS011;44149;43.060;0.104;2022-07-05T05:25:02;5.28;;;2.00;;
58340;SDS011;44149;43.060;0.104;2022-07-05T05:27:28;5.18;;;1.63;;
58340;SDS011;44149;43.060;0.104;2022-07-05T05:29:55;12.48;;;2.38;;
58340;SDS011;44149;43.060;0.104;2022-07-05T05:32:21;3.75;;;2.00;;
58340;SDS011;44149;43.060;0.104;2022-07-05T05:34:47;7.30;;;2.05;;
58340;SDS011;44149;43.060;0.104;2022-07-05T05:37:13;4.97;;;1.92;;
58340;SDS011;44149;43.060;0.104;2022-07-05T05:39:39;2.88;;;1.58;;
58340;SDS011;44149;43.060;0.104;2022-07-05T05:42:06;4.88;;;1.83;;
58340;SDS011;44149;43.060;0.104;2022-07-05T05:44:32;6.68;;;1.95;;
58340;SDS011;44149;43.060;0.104;2022-07-05T05:46:58;4.00;;;2.13;;
58340;SDS011;44149;43.060;0.104;2022-07-05T05:49:24;4.10;;;2.13;;
58340;SDS011;44149;43.060;0.104;2022-07-05T05:51:50;10.20;;;1.92;;
58340;SDS011;44149;43.060;0.104;2022-07-05T05:54:16;3.08;;;2.13;;
58340;SDS011;44149;43.060;0.104;2022-07-05T05:56:42;2.33;;;1.50;;
58340;SDS011;44149;43.060;0.104;2022-07-05T05:59:09;3.22;;;1.83;;
58340;SDS011;44149;43.060;0.104;2022-07-05T06:01:35;6.28;;;1.63;;
58340;SDS011;44149;43.060;0.104;2022-07-05T06:04:01;3.60;;;1.83;;
58340;SDS011;44149;43.060;0.104;2022-07-05T06:06:27;7.70;;;2.17;;
58340;SDS011;44149;43.060;0.104;2022-07-05T06:08:53;4.13;;;2.10;;
58340;SDS011;44149;43.060;0.104;2022-07-05T06:11:19;3.17;;;2.00;;
58340;SDS011;44149;43.060;0.104;2022-07-05T06:13:46;4.35;;;2.10;;
58340;SDS011;44149;43.060;0.104;2022-07-05T06:16:12;6.03;;;2.55;;
58340;SDS011;44149;43.060;0.104;2022-07-05T06:18:38;5.45;;;2.22;;
58340;SDS011;44149;43.060;0.104;2022-07-05T06:21:04;2.83;;;1.83;;
58340;SDS011;44149;43.060;0.104;2022-07-05T06:23:30;4.13;;;2.15;;
58340;SDS011;44149;43.060;0.104;2022-07-05T06:25:57;4.47;;;2.08;;
58340;SDS011;44149;43.060;0.104;2022-07-05T06:28:23;4.65;;;2.17;;
58340;SDS011;44149;43.060;0.104;2022-07-05T06:30:49;3.55;;;1.85;;
58340;SDS011;44149;43.060;0.104;2022-07-05T06:33:15;3.80;;;1.90;;
58340;SDS011;44149;43.060;0.104;2022-07-05T06:35:41;3.03;;;1.98;;
58340;SDS011;44149;43.060;0.104;2022-07-05T06:38:08;2.70;;;1.75;;
58340;SDS011;44149;43.060;0.104;2022-07-05T06:40:35;3.72;;;2.00;;
58340;SDS011;44149;43.060;0.104;2022-07-05T06:43:02;2.70;;;1.90;;
58340;SDS011;44149;43.060;0.104;2022-07-05T06:45:29;3.10;;;2.00;;
58340;SDS011;44149;43.060;0.104;2022-07-05T06:47:56;4.55;;;2.42;;
58340;SDS011;44149;43.060;0.104;2022-07-05T06:50:22;9.65;;;2.70;;
58340;SDS011;44149;43.060;0.104;2022-07-05T06:52:48;3.80;;;2.00;;
58340;SDS011;44149;43.060;0.104;2022-07-05T06:55:14;2.53;;;1.65;;
58340;SDS011;44149;43.060;0.104;2022-07-05T06:57:41;3.42;;;1.90;;
58340;SDS011;44149;43.060;0.104;2022-07-05T07:00:08;4.63;;;2.50;;
58340;SDS011;44149;43.060;0.104;2022-07-05T07:02:35;5.53;;;2.55;;
58340;SDS011;44149;43.060;0.104;2022-07-05T07:05:01;3.67;;;1.80;;
58340;SDS011;44149;43.060;0.104;2022-07-05T07:07:27;3.78;;;1.83;;
58340;SDS011;44149;43.060;0.104;2022-07-05T07:10:15;2.90;;;1.90;;
58340;SDS011;44149;43.060;0.104;2022-07-05T07:12:41;3.05;;;2.05;;
58340;SDS011;44149;43.060;0.104;2022-07-05T07:15:07;3.53;;;1.83;;
58340;SDS011;44149;43.060;0.104;2022-07-05T07:17:33;3.65;;;2.00;;
58340;SDS011;44149;43.060;0.104;2022-07-05T07:20:00;3.17;;;1.90;;
58340;SDS011;44149;43.060;0.104;2022-07-05T07:22:26;3.55;;;1.92;;
58340;SDS011;44149;43.060;0.104;2022-07-05T07:24:52;3.55;;;1.90;;
58340;SDS011;44149;43.060;0.104;2022-07-05T07:27:19;2.83;;;1.30;;
58340;SDS011;44149;43.060;0.104;2022-07-05T07:29:45;1.90;;;1.48;;
58340;SDS011;44149;43.060;0.104;2022-07-05T07:32:11;3.72;;;2.17;;
58340;SDS011;44149;43.060;0.104;2022-07-05T07:34:38;4.05;;;2.35;;
58340;SDS011;44149;43.060;0.104;2022-07-05T07:37:05;3.22;;;2.22;;
58340;SDS011;44149;43.060;0.104;2022-07-05T07:39:33;3.30;;;1.90;;
58340;SDS011;44149;43.060;0.104;2022-07-05T07:42:00;3.40;;;1.60;;
58340;SDS011;44149;43.060;0.104;2022-07-05T07:44:26;3.45;;;1.73;;
58340;SDS011;44149;43.060;0.104;2022-07-05T07:46:52;2.50;;;1.83;;
58340;SDS011;44149;43.060;0.104;2022-07-05T07:49:19;5.78;;;2.30;;
58340;SDS011;44149;43.060;0.104;2022-07-05T07:51:45;3.67;;;2.10;;
58340;SDS011;44149;43.060;0.104;2022-07-05T07:54:11;2.75;;;1.60;;
58340;SDS011;44149;43.060;0.104;2022-07-05T07:56:37;1.30;;;1.10;;
58340;SDS011;44149;43.060;0.104;2022-07-05T07:59:04;2.35;;;1.40;;
58340;SDS011;44149;43.060;0.104;2022-07-05T08:01:30;2.22;;;1.70;;
58340;SDS011;44149;43.060;0.104;2022-07-05T08:03:56;1.42;;;1.30;;
58340;SDS011;44149;43.060;0.104;2022-07-05T08:06:22;2.25;;;1.60;;
58340;SDS011;44149;43.060;0.104;2022-07-05T08:08:48;2.03;;;1.35;;
58340;SDS011;44149;43.060;0.104;2022-07-05T08:11:15;2.88;;;1.85;;
58340;SDS011;44149;43.060;0.104;2022-07-05T08:13:41;6.28;;;1.90;;
58340;SDS011;44149;43.060;0.104;2022-07-05T08:16:08;2.63;;;1.65;;
58340;SDS011;44149;43.060;0.104;2022-07-05T08:18:34;2.83;;;1.52;;
58340;SDS011;44149;43.060;0.104;2022-07-05T08:21:19;2.30;;;1.52;;
58340;SDS011;44149;43.060;0.104;2022-07-05T08:26:29;3.72;;;1.90;;
58340;SDS011;44149;43.060;0.104;2022-07-05T08:28:56;2.25;;;1.73;;
58340;SDS011;44149;43.060;0.104;2022-07-05T08:31:26;2.00;;;1.52;;
58340;SDS011;44149;43.060;0.104;2022-07-05T08:33:53;2.22;;;1.63;;
58340;SDS011;44149;43.060;0.104;2022-07-05T08:36:19;3.35;;;1.73;;
58340;SDS011;44149;43.060;0.104;2022-07-05T08:38:45;2.95;;;1.42;;
58340;SDS011;44149;43.060;0.104;2022-07-05T08:41:11;3.10;;;1.55;;
58340;SDS011;44149;43.060;0.104;2022-07-05T08:43:41;2.75;;;2.03;;
58340;SDS011;44149;43.060;0.104;2022-07-05T08:46:07;2.00;;;1.63;;
58340;SDS011;44149;43.060;0.104;2022-07-05T08:48:38;2.83;;;1.70;;
58340;SDS011;44149;43.060;0.104;2022-07-05T08:51:11;2.58;;;1.23;;
58340;SDS011;44149;43.060;0.104;2022-07-05T08:53:38;2.50;;;1.42;;
58340;SDS011;44149;43.060;0.104;2022-07-05T08:56:06;3.03;;;1.40;;
58340;SDS011;44149;43.060;0.104;2022-07-05T08:58:32;5.22;;;1.50;;
58340;SDS011;44149;43.060;0.104;2022-07-05T09:01:00;3.65;;;1.73;;
58340;SDS011;44149;43.060;0.104;2022-07-05T09:03:28;1.85;;;1.60;;
58340;SDS011;44149;43.060;0.104;2022-07-05T09:05:57;2.15;;;1.23;;
58340;SDS011;44149;43.060;0.104;2022-07-05T09:08:24;3.17;;;1.27;;
58340;SDS011;44149;43.060;0.104;2022-07-05T09:10:51;2.58;;;1.48;;
58340;SDS011;44149;43.060;0.104;2022-07-05T09:13:17;2.95;;;1.75;;
58340;SDS011;44149;43.060;0.104;2022-07-05T09:15:43;2.33;;;1.48;;
58340;SDS011;44149;43.060;0.104;2022-07-05T09:18:10;2.88;;;1.40;;
58340;SDS011;44149;43.060;0.104;2022-07-05T09:20:36;1.88;;;1.20;;
58340;SDS011;44149;43.060;0.104;2022-07-05T09:23:02;2.67;;;1.30;;
58340;SDS011;44149;43.060;0.104;2022-07-05T09:25:29;3.00;;;1.50;;
58340;SDS011;44149;43.060;0.104;2022-07-05T09:28:05;3.55;;;1.45;;
58340;SDS011;44149;43.060;0.104;2022-07-05T09:30:38;5.22;;;1.58;;
58340;SDS011;44149;43.060;0.104;2022-07-05T09:33:11;3.55;;;1.50;;
58340;SDS011;44149;43.060;0.104;2022-07-05T09:35:38;1.35;;;1.08;;
58340;SDS011;44149;43.060;0.104;2022-07-05T09:38:05;2.60;;;1.45;;
58340;SDS011;44149;43.060;0.104;2022-07-05T09:40:33;1.75;;;1.45;;
58340;SDS011;44149;43.060;0.104;2022-07-05T09:43:11;1.30;;;1.20;;
58340;SDS011;44149;43.060;0.104;2022-07-05T09:45:37;4.43;;;1.63;;
58340;SDS011;44149;43.060;0.104;2022-07-05T09:48:05;3.05;;;1.45;;
58340;SDS011;44149;43.060;0.104;2022-07-05T09:50:36;1.83;;;1.30;;
58340;SDS011;44149;43.060;0.104;2022-07-05T09:53:02;5.88;;;2.30;;
58340;SDS011;44149;43.060;0.104;2022-07-05T09:55:29;3.90;;;1.33;;
58340;SDS011;44149;43.060;0.104;2022-07-05T09:57:55;2.60;;;1.50;;
58340;SDS011;44149;43.060;0.104;2022-07-05T10:00:22;2.42;;;1.27;;
58340;SDS011;44149;43.060;0.104;2022-07-05T10:02:50;2.88;;;1.38;;
58340;SDS011;44149;43.060;0.104;2022-07-05T10:05:20;2.33;;;1.48;;
58340;SDS011;44149;43.060;0.104;2022-07-05T10:07:50;2.05;;;1.40;;
58340;SDS011;44149;43.060;0.104;2022-07-05T10:10:20;3.40;;;1.48;;
58340;SDS011;44149;43.060;0.104;2022-07-05T10:12:48;2.40;;;1.40;;
58340;SDS011;44149;43.060;0.104;2022-07-05T10:15:15;2.95;;;1.75;;
58340;SDS011;44149;43.060;0.104;2022-07-05T10:17:46;2.70;;;1.52;;
58340;SDS011;44149;43.060;0.104;2022-07-05T10:20:17;2.35;;;1.40;;
58340;SDS011;44149;43.060;0.104;2022-07-05T10:22:46;2.33;;;1.53;;
58340;SDS011;44149;43.060;0.104;2022-07-05T10:25:13;2.25;;;1.50;;
58340;SDS011;44149;43.060;0.104;2022-07-05T10:27:39;2.17;;;1.23;;
58340;SDS011;44149;43.060;0.104;2022-07-05T10:30:06;1.42;;;1.00;;
58340;SDS011;44149;43.060;0.104;2022-07-05T10:32:33;2.97;;;1.27;;
58340;SDS011;44149;43.060;0.104;2022-07-05T10:35:00;1.58;;;1.23;;
58340;SDS011;44149;43.060;0.104;2022-07-05T10:37:28;3.20;;;1.40;;
58340;SDS011;44149;43.060;0.104;2022-07-05T10:39:56;1.92;;;1.40;;
58340;SDS011;44149;43.060;0.104;2022-07-05T10:42:23;3.10;;;1.40;;
58340;SDS011;44149;43.060;0.104;2022-07-05T10:44:50;3.60;;;1.25;;
58340;SDS011;44149;43.060;0.104;2022-07-05T10:47:16;1.33;;;0.95;;
58340;SDS011;44149;43.060;0.104;2022-07-05T10:49:44;1.42;;;0.98;;
58340;SDS011;44149;43.060;0.104;2022-07-05T10:52:25;1.23;;;1.13;;
58340;SDS011;44149;43.060;0.104;2022-07-05T10:58:29;1.77;;;1.30;;
58340;SDS011;44149;43.060;0.104;2022-07-05T11:00:57;2.17;;;1.10;;
58340;SDS011;44149;43.060;0.104;2022-07-05T11:06:01;3.80;;;1.63;;
58340;SDS011;44149;43.060;0.104;2022-07-05T11:08:28;1.65;;;1.08;;
58340;SDS011;44149;43.060;0.104;2022-07-05T11:11:11;1.33;;;1.10;;
58340;SDS011;44149;43.060;0.104;2022-07-05T11:13:38;1.02;;;0.90;;
58340;SDS011;44149;43.060;0.104;2022-07-05T11:18:47;3.25;;;1.48;;
58340;SDS011;44149;43.060;0.104;2022-07-05T11:21:16;3.95;;;1.10;;
58340;SDS011;44149;43.060;0.104;2022-07-05T11:23:43;2.08;;;1.15;;
58340;SDS011;44149;43.060;0.104;2022-07-05T11:26:11;1.08;;;0.98;;
58340;SDS011;44149;43.060;0.104;2022-07-05T11:28:41;1.55;;;1.27;;
58340;SDS011;44149;43.060;0.104;2022-07-05T11:31:08;2.83;;;1.20;;
58340;SDS011;44149;43.060;0.104;2022-07-05T11:36:05;1.60;;;1.33;;
58340;SDS011;44149;43.060;0.104;2022-07-05T11:38:32;1.48;;;1.00;;
58340;SDS011;44149;43.060;0.104;2022-07-05T11:41:11;1.83;;;1.15;;
58340;SDS011;44149;43.060;0.104;2022-07-05T11:43:38;1.30;;;1.20;;
58340;SDS011;44149;43.060;0.104;2022-07-05T11:46:06;2.60;;;1.10;;
58340;SDS011;44149;43.060;0.104;2022-07-05T11:48:32;1.65;;;1.33;;
58340;SDS011;44149;43.060;0.104;2022-07-05T11:50:58;1.75;;;1.10;;
58340;SDS011;44149;43.060;0.104;2022-07-05T11:53:37;3.08;;;1.15;;
58340;SDS011;44149;43.060;0.104;2022-07-05T11:56:06;3.33;;;1.80;;
58340;SDS011;44149;43.060;0.104;2022-07-05T11:58:32;1.65;;;1.23;;
58340;SDS011;44149;43.060;0.104;2022-07-05T12:00:59;2.10;;;1.20;;
58340;SDS011;44149;43.060;0.104;2022-07-05T12:03:26;2.38;;;1.30;;
58340;SDS011;44149;43.060;0.104;2022-07-05T12:05:53;2.03;;;1.20;;
58340;SDS011;44149;43.060;0.104;2022-07-05T12:08:19;2.53;;;1.08;;
58340;SDS011;44149;43.060;0.104;2022-07-05T12:10:46;2.50;;;1.42;;
58340;SDS011;44149;43.060;0.104;2022-07-05T12:13:31;2.30;;;1.42;;
58340;SDS011;44149;43.060;0.104;2022-07-05T12:16:00;1.73;;;1.20;;
58340;SDS011;44149;43.060;0.104;2022-07-05T12:18:26;2.55;;;1.23;;
58340;SDS011;44149;43.060;0.104;2022-07-05T12:23:40;2.55;;;1.73;;
58340;SDS011;44149;43.060;0.104;2022-07-05T12:26:07;1.38;;;1.17;;
58340;SDS011;44149;43.060;0.104;2022-07-05T12:28:33;2.10;;;1.38;;
58340;SDS011;44149;43.060;0.104;2022-07-05T12:31:13;3.40;;;1.75;;
58340;SDS011;44149;43.060;0.104;2022-07-05T12:33:39;3.03;;;1.52;;
58340;SDS011;44149;43.060;0.104;2022-07-05T12:36:10;2.42;;;1.55;;
58340;SDS011;44149;43.060;0.104;2022-07-05T12:38:36;4.72;;;1.15;;
58340;SDS011;44149;43.060;0.104;2022-07-05T12:41:02;2.15;;;1.23;;
58340;SDS011;44149;43.060;0.104;2022-07-05T12:43:28;1.13;;;0.90;;
58340;SDS011;44149;43.060;0.104;2022-07-05T12:46:07;2.83;;;1.40;;
58340;SDS011;44149;43.060;0.104;2022-07-05T12:48:34;4.22;;;1.40;;
58340;SDS011;44149;43.060;0.104;2022-07-05T12:51:00;2.20;;;1.20;;
58340;SDS011;44149;43.060;0.104;2022-07-05T12:53:27;3.90;;;1.30;;
58340;SDS011;44149;43.060;0.104;2022-07-05T12:56:12;1.77;;;1.20;;
58340;SDS011;44149;43.060;0.104;2022-07-05T12:59:02;1.60;;;1.48;;
58340;SDS011;44149;43.060;0.104;2022-07-05T13:04:07;2.92;;;1.50;;
58340;SDS011;44149;43.060;0.104;2022-07-05T13:09:10;1.00;;;0.90;;
58340;SDS011;44149;43.060;0.104;2022-07-05T13:11:37;2.47;;;1.30;;
58340;SDS011;44149;43.060;0.104;2022-07-05T13:14:03;1.40;;;1.30;;
58340;SDS011;44149;43.060;0.104;2022-07-05T13:16:29;1.45;;;1.20;;
58340;SDS011;44149;43.060;0.104;2022-07-05T13:19:05;1.35;;;1.17;;
58340;SDS011;44149;43.060;0.104;2022-07-05T13:21:31;2.42;;;1.10;;
58340;SDS011;44149;43.060;0.104;2022-07-05T13:23:57;1.65;;;1.08;;
58340;SDS011;44149;43.060;0.104;2022-07-05T13:26:23;3.50;;;1.95;;
58340;SDS011;44149;43.060;0.104;2022-07-05T13:28:50;1.70;;;1.00;;
58340;SDS011;44149;43.060;0.104;2022-07-05T13:31:16;1.77;;;1.33;;
58340;SDS011;44149;43.060;0.104;2022-07-05T13:33:42;3.72;;;1.40;;
58340;SDS011;44149;43.060;0.104;2022-07-05T13:36:08;3.80;;;1.13;;
58340;SDS011;44149;43.060;0.104;2022-07-05T13:38:34;1.38;;;1.05;;
58340;SDS011;44149;43.060;0.104;2022-07-05T13:41:00;1.80;;;1.30;;
58340;SDS011;44149;43.060;0.104;2022-07-05T13:43:26;1.67;;;1.25;;
58340;SDS011;44149;43.060;0.104;2022-07-05T13:45:53;8.57;;;1.48;;
58340;SDS011;44149;43.060;0.104;2022-07-05T13:48:19;2.47;;;1.25;;
58340;SDS011;44149;43.060;0.104;2022-07-05T13:50:45;5.18;;;1.10;;
58340;SDS011;44149;43.060;0.104;2022-07-05T13:53:11;1.23;;;0.95;;
58340;SDS011;44149;43.060;0.104;2022-07-05T13:55:37;1.05;;;0.95;;
58340;SDS011;44149;43.060;0.104;2022-07-05T13:58:03;3.88;;;1.45;;
58340;SDS011;44149;43.060;0.104;2022-07-05T14:00:30;1.65;;;1.08;;
58340;SDS011;44149;43.060;0.104;2022-07-05T14:02:56;2.45;;;1.15;;
58340;SDS011;44149;43.060;0.104;2022-07-05T14:05:22;1.27;;;0.88;;
58340;SDS011;44149;43.060;0.104;2022-07-05T14:07:48;1.33;;;1.20;;
58340;SDS011;44149;43.060;0.104;2022-07-05T14:10:15;2.35;;;1.02;;
58340;SDS011;44149;43.060;0.104;2022-07-05T14:12:41;1.42;;;1.20;;
58340;SDS011;44149;43.060;0.104;2022-07-05T14:15:07;2.55;;;1.10;;
58340;SDS011;44149;43.060;0.104;2022-07-05T14:17:34;2.15;;;1.05;;
58340;SDS011;44149;43.060;0.104;2022-07-05T14:20:00;3.30;;;1.38;;
58340;SDS011;44149;43.060;0.104;2022-07-05T14:22:27;1.50;;;1.10;;
58340;SDS011;44149;43.060;0.104;2022-07-05T14:24:53;1.30;;;1.00;;
58340;SDS011;44149;43.060;0.104;2022-07-05T14:27:19;2.25;;;1.27;;
58340;SDS011;44149;43.060;0.104;2022-07-05T14:29:45;1.10;;;1.05;;
58340;SDS011;44149;43.060;0.104;2022-07-05T14:32:11;1.77;;;1.20;;
58340;SDS011;44149;43.060;0.104;2022-07-05T14:34:37;2.13;;;1.05;;
58340;SDS011;44149;43.060;0.104;2022-07-05T14:37:04;2.72;;;1.13;;
58340;SDS011;44149;43.060;0.104;2022-07-05T14:39:30;2.60;;;1.52;;
58340;SDS011;44149;43.060;0.104;2022-07-05T14:41:56;3.85;;;1.48;;
58340;SDS011;44149;43.060;0.104;2022-07-05T14:44:22;1.63;;;1.52;;
58340;SDS011;44149;43.060;0.104;2022-07-05T14:46:48;4.55;;;1.35;;
58340;SDS011;44149;43.060;0.104;2022-07-05T14:49:15;1.88;;;1.38;;
58340;SDS011;44149;43.060;0.104;2022-07-05T14:51:41;2.35;;;1.10;;
58340;SDS011;44149;43.060;0.104;2022-07-05T14:54:07;2.15;;;1.55;;
58340;SDS011;44149;43.060;0.104;2022-07-05T14:56:33;1.73;;;1.20;;
58340;SDS011;44149;43.060;0.104;2022-07-05T14:58:59;4.38;;;1.55;;
58340;SDS011;44149;43.060;0.104;2022-07-05T15:01:26;1.95;;;1.30;;
58340;SDS011;44149;43.060;0.104;2022-07-05T15:03:52;1.23;;;0.90;;
58340;SDS011;44149;43.060;0.104;2022-07-05T15:06:18;2.45;;;1.27;;
58340;SDS011;44149;43.060;0.104;2022-07-05T15:08:44;1.77;;;1.20;;